sensor_id;sensor_type;location;lat;lon;timestamp;temperature;humidity
47600;DHT22;33323;52.124;6.018;2024-03-02T00:01:11;8.20;99.90
47600;DHT22;33323;52.124;6.018;2024-03-02T00:03:39;8.20;99.90
47600;DHT22;33323;52.124;6.018;2024-03-02T00:06:07;8.20;99.90
47600;DHT22;33323;52.124;6.018;2024-03-02T00:08:34;8.20;99.90
47600;DHT22;33323;52.124;6.018;2024-03-02T00:11:03;8.20;99.90
47600;DHT22;33323;52.124;6.018;2024-03-02T00:13:30;8.20;99.90
47600;DHT22;33323;52.124;6.018;2024-03-02T00:15:58;8.20;99.90
47600;DHT22;33323;52.124;6.018;2024-03-02T00:18:31;8.10;99.90
47600;DHT22;33323;52.124;6.018;2024-03-02T00:21:00;8.20;99.90
47600;DHT22;33323;52.124;6.018;2024-03-02T00:23:29;8.20;99.90
47600;DHT22;33323;52.124;6.018;2024-03-02T00:25:58;8.20;99.90
47600;DHT22;33323;52.124;6.018;2024-03-02T00:28:36;8.20;99.90
47600;DHT22;33323;52.124;6.018;2024-03-02T00:33:44;8.20;99.90
47600;DHT22;33323;52.124;6.018;2024-03-02T00:36:21;8.20;99.90
47600;DHT22;33323;52.124;6.018;2024-03-02T00:38:50;8.10;99.90
47600;DHT22;33323;52.124;6.018;2024-03-02T00:41:25;8.10;99.90
47600;DHT22;33323;52.124;6.018;2024-03-02T00:43:59;8.10;99.90
47600;DHT22;33323;52.124;6.018;2024-03-02T00:51:53;8.30;99.90
47600;DHT22;33323;52.124;6.018;2024-03-02T00:54:25;8.30;99.90
47600;DHT22;33323;52.124;6.018;2024-03-02T00:56:53;8.40;99.90
47600;DHT22;33323;52.124;6.018;2024-03-02T00:59:23;8.40;99.90
47600;DHT22;33323;52.124;6.018;2024-03-02T01:01:50;8.40;99.90
47600;DHT22;33323;52.124;6.018;2024-03-02T01:04:18;8.50;99.90
47600;DHT22;33323;52.124;6.018;2024-03-02T01:06:45;8.40;99.90
47600;DHT22;33323;52.124;6.018;2024-03-02T01:09:13;8.40;99.90
47600;DHT22;33323;52.124;6.018;2024-03-02T01:11:40;8.40;99.90
47600;DHT22;33323;52.124;6.018;2024-03-02T01:14:08;8.40;99.90
47600;DHT22;33323;52.124;6.018;2024-03-02T01:16:35;8.40;99.90
47600;DHT22;33323;52.124;6.018;2024-03-02T01:19:02;8.40;99.90
47600;DHT22;33323;52.124;6.018;2024-03-02T01:21:31;8.40;99.90
47600;DHT22;33323;52.124;6.018;2024-03-02T01:23:58;8.50;99.90
47600;DHT22;33323;52.124;6.018;2024-03-02T01:26:25;8.50;99.90
47600;DHT22;33323;52.124;6.018;2024-03-02T01:28:52;8.50;99.90
47600;DHT22;33323;52.124;6.018;2024-03-02T01:31:19;8.50;99.90
47600;DHT22;33323;52.124;6.018;2024-03-02T01:33:46;8.50;99.90
47600;DHT22;33323;52.124;6.018;2024-03-02T01:36:14;8.50;99.90
47600;DHT22;33323;52.124;6.018;2024-03-02T01:38:41;8.50;99.90
47600;DHT22;33323;52.124;6.018;2024-03-02T01:41:08;8.50;99.90
47600;DHT22;33323;52.124;6.018;2024-03-02T01:43:35;8.50;99.90
47600;DHT22;33323;52.124;6.018;2024-03-02T01:46:06;8.50;99.90
47600;DHT22;33323;52.124;6.018;2024-03-02T01:48:33;8.60;99.90
47600;DHT22;33323;52.124;6.018;2024-03-02T01:51:00;8.50;99.90
47600;DHT22;33323;52.124;6.018;2024-03-02T01:53:28;8.50;99.90
47600;DHT22;33323;52.124;6.018;2024-03-02T01:55:55;8.40;99.90
47600;DHT22;33323;52.124;6.018;2024-03-02T01:58:22;8.40;99.90
47600;DHT22;33323;52.124;6.018;2024-03-02T02:00:49;8.40;99.90
47600;DHT22;33323;52.124;6.018;2024-03-02T02:03:17;8.30;99.90
47600;DHT22;33323;52.124;6.018;2024-03-02T02:05:44;8.30;99.90
47600;DHT22;33323;52.124;6.018;2024-03-02T02:08:12;8.30;99.90
47600;DHT22;33323;52.124;6.018;2024-03-02T02:10:39;8.20;99.90
47600;DHT22;33323;52.124;6.018;2024-03-02T02:13:06;8.20;99.90
47600;DHT22;33323;52.124;6.018;2024-03-02T02:15:35;8.10;99.90
47600;DHT22;33323;52.124;6.018;2024-03-02T02:18:03;8.10;99.90
47600;DHT22;33323;52.124;6.018;2024-03-02T02:20:31;8.10;99.90
47600;DHT22;33323;52.124;6.018;2024-03-02T02:23:03;8.10;99.90
47600;DHT22;33323;52.124;6.018;2024-03-02T02:25:32;8.10;99.90
47600;DHT22;33323;52.124;6.018;2024-03-02T02:27:59;8.10;99.90
47600;DHT22;33323;52.124;6.018;2024-03-02T02:30:28;8.20;99.90
47600;DHT22;33323;52.124;6.018;2024-03-02T02:32:57;8.10;99.90
47600;DHT22;33323;52.124;6.018;2024-03-02T02:35:25;8.10;99.90
47600;DHT22;33323;52.124;6.018;2024-03-02T02:37:54;8.10;99.90
47600;DHT22;33323;52.124;6.018;2024-03-02T02:40:22;8.00;99.90
47600;DHT22;33323;52.124;6.018;2024-03-02T02:42:49;8.00;99.90
47600;DHT22;33323;52.124;6.018;2024-03-02T02:45:16;8.00;99.90
47600;DHT22;33323;52.124;6.018;2024-03-02T02:47:44;7.90;99.90
47600;DHT22;33323;52.124;6.018;2024-03-02T02:50:12;7.90;99.90
47600;DHT22;33323;52.124;6.018;2024-03-02T02:52:41;7.90;99.90
47600;DHT22;33323;52.124;6.018;2024-03-02T02:55:10;8.00;99.90
47600;DHT22;33323;52.124;6.018;2024-03-02T02:57:42;7.90;99.90
47600;DHT22;33323;52.124;6.018;2024-03-02T03:00:14;7.90;99.90
47600;DHT22;33323;52.124;6.018;2024-03-02T03:02:48;7.80;99.90
47600;DHT22;33323;52.124;6.018;2024-03-02T03:05:17;7.80;99.90
47600;DHT22;33323;52.124;6.018;2024-03-02T03:07:45;7.90;99.90
47600;DHT22;33323;52.124;6.018;2024-03-02T03:10:12;7.90;99.90
47600;DHT22;33323;52.124;6.018;2024-03-02T03:12:41;7.90;99.90
47600;DHT22;33323;52.124;6.018;2024-03-02T03:15:10;7.80;99.90
47600;DHT22;33323;52.124;6.018;2024-03-02T03:17:41;7.80;99.90
47600;DHT22;33323;52.124;6.018;2024-03-02T03:20:08;7.70;99.90
47600;DHT22;33323;52.124;6.018;2024-03-02T03:22:39;7.80;99.90
47600;DHT22;33323;52.124;6.018;2024-03-02T03:25:06;7.80;99.90
47600;DHT22;33323;52.124;6.018;2024-03-02T03:27:36;7.70;99.90
47600;DHT22;33323;52.124;6.018;2024-03-02T03:30:04;7.70;99.90
47600;DHT22;33323;52.124;6.018;2024-03-02T03:32:33;7.60;99.90
47600;DHT22;33323;52.124;6.018;2024-03-02T03:35:00;7.60;99.90
47600;DHT22;33323;52.124;6.018;2024-03-02T03:37:27;7.60;99.90
47600;DHT22;33323;52.124;6.018;2024-03-02T03:40:00;7.50;99.90
47600;DHT22;33323;52.124;6.018;2024-03-02T03:42:36;7.50;99.90
47600;DHT22;33323;52.124;6.018;2024-03-02T03:45:03;7.40;99.90
47600;DHT22;33323;52.124;6.018;2024-03-02T03:47:32;7.40;99.90
47600;DHT22;33323;52.124;6.018;2024-03-02T03:49:59;7.30;99.90
47600;DHT22;33323;52.124;6.018;2024-03-02T03:52:26;7.30;99.90
47600;DHT22;33323;52.124;6.018;2024-03-02T03:54:53;7.40;99.90
47600;DHT22;33323;52.124;6.018;2024-03-02T03:57:20;7.30;99.90
47600;DHT22;33323;52.124;6.018;2024-03-02T03:59:47;7.30;99.90
47600;DHT22;33323;52.124;6.018;2024-03-02T04:02:14;7.30;99.90
47600;DHT22;33323;52.124;6.018;2024-03-02T04:04:41;7.30;99.90
47600;DHT22;33323;52.124;6.018;2024-03-02T04:07:08;7.20;99.90
47600;DHT22;33323;52.124;6.018;2024-03-02T04:09:35;7.20;99.90
47600;DHT22;33323;52.124;6.018;2024-03-02T04:12:03;7.30;99.90
47600;DHT22;33323;52.124;6.018;2024-03-02T04:14:30;7.20;99.90
47600;DHT22;33323;52.124;6.018;2024-03-02T04:16:57;7.20;99.90
47600;DHT22;33323;52.124;6.018;2024-03-02T04:19:24;7.20;99.90
47600;DHT22;33323;52.124;6.018;2024-03-02T04:21:51;7.20;99.90
47600;DHT22;33323;52.124;6.018;2024-03-02T04:24:18;7.20;99.90
47600;DHT22;33323;52.124;6.018;2024-03-02T04:26:45;7.10;99.90
47600;DHT22;33323;52.124;6.018;2024-03-02T04:29:12;7.10;99.90
47600;DHT22;33323;52.124;6.018;2024-03-02T04:31:39;7.10;99.90
47600;DHT22;33323;52.124;6.018;2024-03-02T04:34:06;7.10;99.90
47600;DHT22;33323;52.124;6.018;2024-03-02T04:36:33;7.20;99.90
47600;DHT22;33323;52.124;6.018;2024-03-02T04:39:00;7.20;99.90
47600;DHT22;33323;52.124;6.018;2024-03-02T04:41:27;7.20;99.90
47600;DHT22;33323;52.124;6.018;2024-03-02T04:43:54;7.20;99.90
47600;DHT22;33323;52.124;6.018;2024-03-02T04:46:21;7.10;99.90
47600;DHT22;33323;52.124;6.018;2024-03-02T04:48:50;7.10;99.90
47600;DHT22;33323;52.124;6.018;2024-03-02T04:51:22;7.00;99.90
47600;DHT22;33323;52.124;6.018;2024-03-02T04:53:49;7.10;99.90
47600;DHT22;33323;52.124;6.018;2024-03-02T04:56:16;7.10;99.90
47600;DHT22;33323;52.124;6.018;2024-03-02T04:59:06;7.10;99.90
47600;DHT22;33323;52.124;6.018;2024-03-02T05:01:33;7.20;99.90
47600;DHT22;33323;52.124;6.018;2024-03-02T05:04:00;7.10;99.90
47600;DHT22;33323;52.124;6.018;2024-03-02T05:06:27;7.10;99.90
47600;DHT22;33323;52.124;6.018;2024-03-02T05:08:54;7.00;99.90
47600;DHT22;33323;52.124;6.018;2024-03-02T05:11:21;6.90;99.90
47600;DHT22;33323;52.124;6.018;2024-03-02T05:14:04;6.80;99.90
47600;DHT22;33323;52.124;6.018;2024-03-02T05:16:37;6.70;99.90
47600;DHT22;33323;52.124;6.018;2024-03-02T05:19:08;6.70;99.90
47600;DHT22;33323;52.124;6.018;2024-03-02T05:21:35;6.60;99.90
47600;DHT22;33323;52.124;6.018;2024-03-02T05:24:02;6.60;99.90
47600;DHT22;33323;52.124;6.018;2024-03-02T05:26:29;6.60;99.90
47600;DHT22;33323;52.124;6.018;2024-03-02T05:28:56;6.50;99.90
47600;DHT22;33323;52.124;6.018;2024-03-02T05:31:23;6.50;99.90
47600;DHT22;33323;52.124;6.018;2024-03-02T05:33:50;6.60;99.90
47600;DHT22;33323;52.124;6.018;2024-03-02T05:36:23;6.50;99.90
47600;DHT22;33323;52.124;6.018;2024-03-02T05:38:50;6.50;99.90
47600;DHT22;33323;52.124;6.018;2024-03-02T05:41:17;6.50;99.90
47600;DHT22;33323;52.124;6.018;2024-03-02T05:43:44;6.40;99.90
47600;DHT22;33323;52.124;6.018;2024-03-02T05:46:11;6.50;99.90
47600;DHT22;33323;52.124;6.018;2024-03-02T05:48:38;6.50;99.90
47600;DHT22;33323;52.124;6.018;2024-03-02T05:51:05;6.50;99.90
47600;DHT22;33323;52.124;6.018;2024-03-02T05:53:32;6.40;99.90
47600;DHT22;33323;52.124;6.018;2024-03-02T05:56:00;6.40;99.90
47600;DHT22;33323;52.124;6.018;2024-03-02T05:58:31;6.30;99.90
47600;DHT22;33323;52.124;6.018;2024-03-02T06:01:16;6.30;99.90
47600;DHT22;33323;52.124;6.018;2024-03-02T06:03:45;6.30;99.90
47600;DHT22;33323;52.124;6.018;2024-03-02T06:06:12;6.20;99.90
47600;DHT22;33323;52.124;6.018;2024-03-02T06:08:39;6.20;99.90
47600;DHT22;33323;52.124;6.018;2024-03-02T06:11:06;6.10;99.90
47600;DHT22;33323;52.124;6.018;2024-03-02T06:13:33;6.10;99.90
47600;DHT22;33323;52.124;6.018;2024-03-02T06:16:00;6.20;99.90
47600;DHT22;33323;52.124;6.018;2024-03-02T06:18:27;6.10;99.90
47600;DHT22;33323;52.124;6.018;2024-03-02T06:20:54;6.00;99.90
47600;DHT22;33323;52.124;6.018;2024-03-02T06:23:21;5.90;99.90
47600;DHT22;33323;52.124;6.018;2024-03-02T06:25:48;5.80;99.90
47600;DHT22;33323;52.124;6.018;2024-03-02T06:28:15;5.80;99.90
47600;DHT22;33323;52.124;6.018;2024-03-02T06:30:42;5.70;99.90
47600;DHT22;33323;52.124;6.018;2024-03-02T06:33:10;5.60;99.90
47600;DHT22;33323;52.124;6.018;2024-03-02T06:35:37;5.60;99.90
47600;DHT22;33323;52.124;6.018;2024-03-02T06:38:06;5.50;99.90
47600;DHT22;33323;52.124;6.018;2024-03-02T06:40:33;5.50;99.90
47600;DHT22;33323;52.124;6.018;2024-03-02T06:43:01;5.50;99.90
47600;DHT22;33323;52.124;6.018;2024-03-02T06:45:29;5.50;99.90
47600;DHT22;33323;52.124;6.018;2024-03-02T06:47:57;5.50;99.90
47600;DHT22;33323;52.124;6.018;2024-03-02T06:50:25;5.50;99.90
47600;DHT22;33323;52.124;6.018;2024-03-02T06:52:52;5.60;99.90
47600;DHT22;33323;52.124;6.018;2024-03-02T06:55:20;5.60;99.90
47600;DHT22;33323;52.124;6.018;2024-03-02T06:57:48;5.50;99.90
47600;DHT22;33323;52.124;6.018;2024-03-02T07:00:15;5.50;99.90
47600;DHT22;33323;52.124;6.018;2024-03-02T07:02:45;5.60;99.90
47600;DHT22;33323;52.124;6.018;2024-03-02T07:05:15;5.70;99.90
47600;DHT22;33323;52.124;6.018;2024-03-02T07:07:42;5.80;99.90
47600;DHT22;33323;52.124;6.018;2024-03-02T07:10:12;6.00;99.90
47600;DHT22;33323;52.124;6.018;2024-03-02T07:12:40;6.20;99.90
47600;DHT22;33323;52.124;6.018;2024-03-02T07:15:08;6.40;99.90
47600;DHT22;33323;52.124;6.018;2024-03-02T07:17:51;6.50;99.90
47600;DHT22;33323;52.124;6.018;2024-03-02T07:20:18;6.50;99.90
47600;DHT22;33323;52.124;6.018;2024-03-02T07:22:45;6.60;99.90
47600;DHT22;33323;52.124;6.018;2024-03-02T07:25:13;6.60;99.90
47600;DHT22;33323;52.124;6.018;2024-03-02T07:27:43;6.60;99.90
47600;DHT22;33323;52.124;6.018;2024-03-02T07:30:16;6.70;99.90
47600;DHT22;33323;52.124;6.018;2024-03-02T07:32:45;6.70;99.90
47600;DHT22;33323;52.124;6.018;2024-03-02T07:35:14;6.70;99.90
47600;DHT22;33323;52.124;6.018;2024-03-02T07:37:42;6.70;99.90
47600;DHT22;33323;52.124;6.018;2024-03-02T07:40:10;6.70;99.90
47600;DHT22;33323;52.124;6.018;2024-03-02T07:42:39;6.80;99.90
47600;DHT22;33323;52.124;6.018;2024-03-02T07:45:11;6.80;99.90
47600;DHT22;33323;52.124;6.018;2024-03-02T07:47:38;6.90;99.90
47600;DHT22;33323;52.124;6.018;2024-03-02T07:50:06;6.90;99.90
47600;DHT22;33323;52.124;6.018;2024-03-02T07:52:37;7.00;99.90
47600;DHT22;33323;52.124;6.018;2024-03-02T07:55:05;7.10;99.90
47600;DHT22;33323;52.124;6.018;2024-03-02T07:57:32;7.10;99.90
47600;DHT22;33323;52.124;6.018;2024-03-02T08:00:00;7.10;99.90
47600;DHT22;33323;52.124;6.018;2024-03-02T08:02:38;7.20;99.90
47600;DHT22;33323;52.124;6.018;2024-03-02T08:05:06;7.30;99.90
47600;DHT22;33323;52.124;6.018;2024-03-02T08:07:34;7.30;99.90
47600;DHT22;33323;52.124;6.018;2024-03-02T08:10:02;7.40;99.90
47600;DHT22;33323;52.124;6.018;2024-03-02T08:12:30;7.40;99.90
47600;DHT22;33323;52.124;6.018;2024-03-02T08:14:58;7.50;99.90
47600;DHT22;33323;52.124;6.018;2024-03-02T08:17:25;7.50;99.90
47600;DHT22;33323;52.124;6.018;2024-03-02T08:19:53;7.60;99.90
47600;DHT22;33323;52.124;6.018;2024-03-02T08:22:21;7.60;99.90
47600;DHT22;33323;52.124;6.018;2024-03-02T08:24:49;7.80;99.90
47600;DHT22;33323;52.124;6.018;2024-03-02T08:27:17;7.80;99.90
47600;DHT22;33323;52.124;6.018;2024-03-02T08:29:45;7.90;99.90
47600;DHT22;33323;52.124;6.018;2024-03-02T08:32:12;7.90;99.90
47600;DHT22;33323;52.124;6.018;2024-03-02T08:34:40;8.00;99.90
47600;DHT22;33323;52.124;6.018;2024-03-02T08:37:07;8.10;99.90
47600;DHT22;33323;52.124;6.018;2024-03-02T08:39:35;8.10;99.90
47600;DHT22;33323;52.124;6.018;2024-03-02T08:42:02;8.20;99.90
47600;DHT22;33323;52.124;6.018;2024-03-02T08:44:31;8.20;99.90
47600;DHT22;33323;52.124;6.018;2024-03-02T08:47:03;8.20;99.90
47600;DHT22;33323;52.124;6.018;2024-03-02T08:49:31;8.20;99.90
47600;DHT22;33323;52.124;6.018;2024-03-02T08:51:58;8.30;99.90
47600;DHT22;33323;52.124;6.018;2024-03-02T08:54:26;8.30;99.90
47600;DHT22;33323;52.124;6.018;2024-03-02T08:56:54;8.30;99.90
47600;DHT22;33323;52.124;6.018;2024-03-02T08:59:21;8.40;99.90
47600;DHT22;33323;52.124;6.018;2024-03-02T09:01:48;8.50;99.90
47600;DHT22;33323;52.124;6.018;2024-03-02T09:04:16;8.50;99.90
47600;DHT22;33323;52.124;6.018;2024-03-02T09:06:44;8.60;99.90
47600;DHT22;33323;52.124;6.018;2024-03-02T09:09:11;8.60;99.90
47600;DHT22;33323;52.124;6.018;2024-03-02T09:11:39;8.60;99.90
47600;DHT22;33323;52.124;6.018;2024-03-02T09:14:07;8.90;99.90
47600;DHT22;33323;52.124;6.018;2024-03-02T09:16:35;9.10;99.90
47600;DHT22;33323;52.124;6.018;2024-03-02T09:19:02;9.30;99.90
47600;DHT22;33323;52.124;6.018;2024-03-02T09:21:30;9.50;99.90
47600;DHT22;33323;52.124;6.018;2024-03-02T09:23:58;9.70;99.90
47600;DHT22;33323;52.124;6.018;2024-03-02T09:26:25;9.80;99.90
47600;DHT22;33323;52.124;6.018;2024-03-02T09:28:53;10.10;99.90
47600;DHT22;33323;52.124;6.018;2024-03-02T09:31:20;10.10;99.90
47600;DHT22;33323;52.124;6.018;2024-03-02T09:33:47;10.20;99.90
47600;DHT22;33323;52.124;6.018;2024-03-02T09:36:19;10.30;99.90
47600;DHT22;33323;52.124;6.018;2024-03-02T09:38:48;10.40;99.90
47600;DHT22;33323;52.124;6.018;2024-03-02T09:41:16;10.40;99.90
47600;DHT22;33323;52.124;6.018;2024-03-02T09:43:43;10.30;99.90
47600;DHT22;33323;52.124;6.018;2024-03-02T09:46:14;10.30;99.90
47600;DHT22;33323;52.124;6.018;2024-03-02T09:48:44;10.50;99.90
47600;DHT22;33323;52.124;6.018;2024-03-02T09:51:12;10.70;99.90
47600;DHT22;33323;52.124;6.018;2024-03-02T09:53:41;10.90;99.90
47600;DHT22;33323;52.124;6.018;2024-03-02T09:56:09;11.20;99.90
47600;DHT22;33323;52.124;6.018;2024-03-02T09:58:38;11.20;99.90
47600;DHT22;33323;52.124;6.018;2024-03-02T10:01:06;11.20;99.90
47600;DHT22;33323;52.124;6.018;2024-03-02T10:03:34;11.20;99.90
47600;DHT22;33323;52.124;6.018;2024-03-02T10:06:23;11.40;99.90
47600;DHT22;33323;52.124;6.018;2024-03-02T10:08:52;11.50;99.90
47600;DHT22;33323;52.124;6.018;2024-03-02T10:11:30;11.40;99.90
47600;DHT22;33323;52.124;6.018;2024-03-02T10:14:07;11.30;99.90
47600;DHT22;33323;52.124;6.018;2024-03-02T10:16:40;11.40;99.90
47600;DHT22;33323;52.124;6.018;2024-03-02T10:19:22;11.50;99.90
47600;DHT22;33323;52.124;6.018;2024-03-02T10:21:51;11.50;99.90
47600;DHT22;33323;52.124;6.018;2024-03-02T10:24:21;11.60;99.90
47600;DHT22;33323;52.124;6.018;2024-03-02T10:26:49;11.90;99.90
47600;DHT22;33323;52.124;6.018;2024-03-02T10:29:17;12.00;99.90
47600;DHT22;33323;52.124;6.018;2024-03-02T10:31:46;11.90;99.90
47600;DHT22;33323;52.124;6.018;2024-03-02T10:34:13;12.00;99.90
47600;DHT22;33323;52.124;6.018;2024-03-02T10:36:42;12.10;99.90
47600;DHT22;33323;52.124;6.018;2024-03-02T10:39:10;11.90;99.90
47600;DHT22;33323;52.124;6.018;2024-03-02T10:41:40;12.00;99.90
47600;DHT22;33323;52.124;6.018;2024-03-02T10:44:09;12.00;99.90
47600;DHT22;33323;52.124;6.018;2024-03-02T10:46:37;12.10;99.90
47600;DHT22;33323;52.124;6.018;2024-03-02T10:49:05;12.50;99.90
47600;DHT22;33323;52.124;6.018;2024-03-02T10:51:35;12.70;99.90
47600;DHT22;33323;52.124;6.018;2024-03-02T10:54:04;12.80;99.90
47600;DHT22;33323;52.124;6.018;2024-03-02T10:56:44;12.90;99.90
47600;DHT22;33323;52.124;6.018;2024-03-02T10:59:27;13.00;99.90
47600;DHT22;33323;52.124;6.018;2024-03-02T11:02:06;12.80;99.90
47600;DHT22;33323;52.124;6.018;2024-03-02T11:04:39;12.70;99.90
47600;DHT22;33323;52.124;6.018;2024-03-02T11:07:10;12.80;99.90
47600;DHT22;33323;52.124;6.018;2024-03-02T11:09:42;13.10;99.90
47600;DHT22;33323;52.124;6.018;2024-03-02T11:14:51;13.20;99.90
47600;DHT22;33323;52.124;6.018;2024-03-02T11:17:19;13.30;99.90
47600;DHT22;33323;52.124;6.018;2024-03-02T11:19:46;13.10;99.90
47600;DHT22;33323;52.124;6.018;2024-03-02T11:22:14;12.90;99.90
47600;DHT22;33323;52.124;6.018;2024-03-02T11:24:49;13.00;99.90
47600;DHT22;33323;52.124;6.018;2024-03-02T11:33:06;13.10;99.90
47600;DHT22;33323;52.124;6.018;2024-03-02T11:35:36;13.10;99.90
47600;DHT22;33323;52.124;6.018;2024-03-02T11:38:10;13.20;99.90
47600;DHT22;33323;52.124;6.018;2024-03-02T11:40:39;13.10;99.90
47600;DHT22;33323;52.124;6.018;2024-03-02T11:43:07;13.00;99.90
47600;DHT22;33323;52.124;6.018;2024-03-02T11:45:38;13.10;99.90
47600;DHT22;33323;52.124;6.018;2024-03-02T11:48:08;13.10;99.90
47600;DHT22;33323;52.124;6.018;2024-03-02T11:50:41;13.00;99.90
47600;DHT22;33323;52.124;6.018;2024-03-02T11:53:10;13.10;99.90
47600;DHT22;33323;52.124;6.018;2024-03-02T11:55:39;13.20;99.90
47600;DHT22;33323;52.124;6.018;2024-03-02T11:58:16;13.50;99.90
47600;DHT22;33323;52.124;6.018;2024-03-02T12:00:54;13.60;99.90
47600;DHT22;33323;52.124;6.018;2024-03-02T12:03:24;13.40;99.90
47600;DHT22;33323;52.124;6.018;2024-03-02T12:05:53;13.50;99.90
47600;DHT22;33323;52.124;6.018;2024-03-02T12:08:21;13.70;99.90
47600;DHT22;33323;52.124;6.018;2024-03-02T12:10:59;13.80;99.90
47600;DHT22;33323;52.124;6.018;2024-03-02T12:13:29;13.80;99.90
47600;DHT22;33323;52.124;6.018;2024-03-02T12:15:56;13.70;99.90
47600;DHT22;33323;52.124;6.018;2024-03-02T12:18:24;13.60;99.90
47600;DHT22;33323;52.124;6.018;2024-03-02T12:20:52;13.60;99.90
47600;DHT22;33323;52.124;6.018;2024-03-02T12:23:20;13.50;99.90
47600;DHT22;33323;52.124;6.018;2024-03-02T12:25:47;13.50;99.90
47600;DHT22;33323;52.124;6.018;2024-03-02T12:28:14;13.60;99.90
47600;DHT22;33323;52.124;6.018;2024-03-02T12:30:41;13.70;99.90
47600;DHT22;33323;52.124;6.018;2024-03-02T12:33:11;13.50;99.90
47600;DHT22;33323;52.124;6.018;2024-03-02T12:35:38;13.60;99.90
47600;DHT22;33323;52.124;6.018;2024-03-02T12:38:06;13.70;99.90
47600;DHT22;33323;52.124;6.018;2024-03-02T12:40:33;13.80;99.90
47600;DHT22;33323;52.124;6.018;2024-03-02T12:43:00;13.90;99.90
47600;DHT22;33323;52.124;6.018;2024-03-02T12:45:27;13.80;99.90
47600;DHT22;33323;52.124;6.018;2024-03-02T12:47:55;14.00;99.90
47600;DHT22;33323;52.124;6.018;2024-03-02T12:50:22;13.70;99.90
47600;DHT22;33323;52.124;6.018;2024-03-02T12:52:53;13.90;99.90
47600;DHT22;33323;52.124;6.018;2024-03-02T12:55:21;14.10;99.90
47600;DHT22;33323;52.124;6.018;2024-03-02T12:57:52;13.90;99.90
47600;DHT22;33323;52.124;6.018;2024-03-02T13:00:21;13.60;99.90
47600;DHT22;33323;52.124;6.018;2024-03-02T13:02:50;13.70;99.90
47600;DHT22;33323;52.124;6.018;2024-03-02T13:05:19;13.60;99.90
47600;DHT22;33323;52.124;6.018;2024-03-02T13:07:47;13.60;99.90
47600;DHT22;33323;52.124;6.018;2024-03-02T13:10:16;13.60;99.90
47600;DHT22;33323;52.124;6.018;2024-03-02T13:12:45;13.60;99.90
47600;DHT22;33323;52.124;6.018;2024-03-02T13:15:12;13.50;99.90
47600;DHT22;33323;52.124;6.018;2024-03-02T13:17:45;13.50;99.90
47600;DHT22;33323;52.124;6.018;2024-03-02T13:20:15;13.70;99.90
47600;DHT22;33323;52.124;6.018;2024-03-02T13:22:44;13.50;99.90
47600;DHT22;33323;52.124;6.018;2024-03-02T13:25:10;13.40;99.90
47600;DHT22;33323;52.124;6.018;2024-03-02T13:27:39;13.30;99.90
47600;DHT22;33323;52.124;6.018;2024-03-02T13:30:07;13.20;99.90
47600;DHT22;33323;52.124;6.018;2024-03-02T13:32:36;13.10;99.90
47600;DHT22;33323;52.124;6.018;2024-03-02T13:35:03;13.10;99.90
47600;DHT22;33323;52.124;6.018;2024-03-02T13:37:31;13.20;99.90
47600;DHT22;33323;52.124;6.018;2024-03-02T13:39:58;13.20;99.90
47600;DHT22;33323;52.124;6.018;2024-03-02T13:42:25;13.10;99.90
47600;DHT22;33323;52.124;6.018;2024-03-02T13:44:52;13.10;99.90
47600;DHT22;33323;52.124;6.018;2024-03-02T13:47:19;13.30;99.90
47600;DHT22;33323;52.124;6.018;2024-03-02T13:49:48;13.30;99.90
47600;DHT22;33323;52.124;6.018;2024-03-02T13:52:15;13.40;99.90
47600;DHT22;33323;52.124;6.018;2024-03-02T13:54:47;13.70;99.90
47600;DHT22;33323;52.124;6.018;2024-03-02T13:57:15;13.70;99.90
47600;DHT22;33323;52.124;6.018;2024-03-02T13:59:43;13.70;99.90
47600;DHT22;33323;52.124;6.018;2024-03-02T14:02:11;13.80;99.90
47600;DHT22;33323;52.124;6.018;2024-03-02T14:04:39;13.80;99.90
47600;DHT22;33323;52.124;6.018;2024-03-02T14:07:06;13.90;99.90
47600;DHT22;33323;52.124;6.018;2024-03-02T14:09:34;14.00;99.90
47600;DHT22;33323;52.124;6.018;2024-03-02T14:12:02;14.00;99.90
47600;DHT22;33323;52.124;6.018;2024-03-02T14:14:30;13.90;99.90
47600;DHT22;33323;52.124;6.018;2024-03-02T14:16:57;13.90;99.90
47600;DHT22;33323;52.124;6.018;2024-03-02T14:19:27;14.00;99.90
47600;DHT22;33323;52.124;6.018;2024-03-02T14:21:54;14.00;99.90
47600;DHT22;33323;52.124;6.018;2024-03-02T14:24:21;14.10;99.90
47600;DHT22;33323;52.124;6.018;2024-03-02T14:26:53;14.10;99.90
47600;DHT22;33323;52.124;6.018;2024-03-02T14:29:29;14.20;99.90
47600;DHT22;33323;52.124;6.018;2024-03-02T14:31:56;14.20;99.90
47600;DHT22;33323;52.124;6.018;2024-03-02T14:34:23;14.30;99.90
47600;DHT22;33323;52.124;6.018;2024-03-02T14:36:50;13.90;99.90
47600;DHT22;33323;52.124;6.018;2024-03-02T14:39:17;14.00;99.90
47600;DHT22;33323;52.124;6.018;2024-03-02T14:41:46;14.00;99.90
47600;DHT22;33323;52.124;6.018;2024-03-02T14:44:13;14.20;99.90
47600;DHT22;33323;52.124;6.018;2024-03-02T14:46:40;14.30;99.90
47600;DHT22;33323;52.124;6.018;2024-03-02T14:49:10;14.20;99.90
47600;DHT22;33323;52.124;6.018;2024-03-02T14:51:37;14.30;99.90
47600;DHT22;33323;52.124;6.018;2024-03-02T14:54:04;14.20;99.90
47600;DHT22;33323;52.124;6.018;2024-03-02T14:56:32;14.10;99.90
47600;DHT22;33323;52.124;6.018;2024-03-02T14:58:59;14.00;99.90
47600;DHT22;33323;52.124;6.018;2024-03-02T15:01:26;14.10;99.90
47600;DHT22;33323;52.124;6.018;2024-03-02T15:03:53;14.00;99.90
47600;DHT22;33323;52.124;6.018;2024-03-02T15:06:20;14.10;99.90
47600;DHT22;33323;52.124;6.018;2024-03-02T15:08:47;14.20;99.90
47600;DHT22;33323;52.124;6.018;2024-03-02T15:11:14;14.30;99.90
47600;DHT22;33323;52.124;6.018;2024-03-02T15:13:42;14.30;99.90
47600;DHT22;33323;52.124;6.018;2024-03-02T15:16:09;14.40;99.90
47600;DHT22;33323;52.124;6.018;2024-03-02T15:18:36;14.10;99.90
47600;DHT22;33323;52.124;6.018;2024-03-02T15:21:03;14.10;99.90
47600;DHT22;33323;52.124;6.018;2024-03-02T15:23:31;14.10;99.90
47600;DHT22;33323;52.124;6.018;2024-03-02T15:25:58;14.00;99.90
47600;DHT22;33323;52.124;6.018;2024-03-02T15:28:25;14.00;99.90
47600;DHT22;33323;52.124;6.018;2024-03-02T15:30:51;13.90;99.90
47600;DHT22;33323;52.124;6.018;2024-03-02T15:33:22;13.80;99.90
47600;DHT22;33323;52.124;6.018;2024-03-02T15:35:54;13.90;99.90
47600;DHT22;33323;52.124;6.018;2024-03-02T15:38:23;14.00;99.90
47600;DHT22;33323;52.124;6.018;2024-03-02T15:41:00;14.00;99.90
47600;DHT22;33323;52.124;6.018;2024-03-02T15:43:27;14.00;99.90
47600;DHT22;33323;52.124;6.018;2024-03-02T15:45:57;13.90;99.90
47600;DHT22;33323;52.124;6.018;2024-03-02T15:48:25;13.80;99.90
47600;DHT22;33323;52.124;6.018;2024-03-02T15:50:52;13.80;99.90
47600;DHT22;33323;52.124;6.018;2024-03-02T15:53:20;13.80;99.90
47600;DHT22;33323;52.124;6.018;2024-03-02T15:55:50;13.80;99.90
47600;DHT22;33323;52.124;6.018;2024-03-02T15:58:18;13.50;99.90
47600;DHT22;33323;52.124;6.018;2024-03-02T16:00:45;13.30;99.90
47600;DHT22;33323;52.124;6.018;2024-03-02T16:03:12;13.20;99.90
47600;DHT22;33323;52.124;6.018;2024-03-02T16:05:39;13.20;99.90